Time;durP1;ratioP1;P1;durP2;ratioP2;P2;SDS_P1;SDS_P2;PMS_P1;PMS_P2;Temp;Humidity;BMP_temperature;BMP_pressure;BME280_temperature;BME280_humidity;BME280_pressure;Samples;Min_cycle;Max_cycle;Signal;HPM_P1;HPM_P2
2022/01/25 00:08:23;;;;;;;24.70;16.65;;;5.50;99.90;;;;;;5004034;28;20432;-77
2022/01/25 00:24:28;;;;;;;18.02;14.68;;;5.50;99.90;;;;;;4986262;28;20049;-77
2022/01/25 00:29:49;;;;;;;30.48;14.50;;;5.50;99.90;;;;;;5001885;28;20077;-77
2022/01/25 00:32:16;;;;;;;;;;;5.50;99.90;;;;;;4967041;28;20509;-77
2022/01/25 00:34:42;;;;;;;23.13;18.25;;;5.50;99.90;;;;;;4966445;28;20377;-77
2022/01/25 00:37:07;;;;;;;19.30;14.82;;;5.50;99.90;;;;;;4983002;28;20041;-77
2022/01/25 00:39:37;;;;;;;21.58;14.95;;;5.50;99.90;;;;;;4983063;28;20437;-77
2022/01/25 00:42:03;;;;;;;22.08;15.27;;;5.50;99.90;;;;;;4982183;28;20038;-77
2022/01/25 00:44:35;;;;;;;24.75;15.35;;;5.50;99.90;;;;;;4983204;28;20226;-77
2022/01/25 00:47:01;;;;;;;22.13;12.98;;;5.40;99.90;;;;;;4965143;28;20038;-77
2022/01/25 00:49:28;;;;;;;23.83;19.60;;;5.50;99.90;;;;;;4983608;28;20053;-77
2022/01/25 00:56:49;;;;;;;34.30;17.85;;;5.50;99.90;;;;;;4981026;28;20470;-78
2022/01/25 00:59:18;;;;;;;21.33;15.10;;;5.50;99.90;;;;;;4983696;28;20456;-78
2022/01/25 01:01:46;;;;;;;35.40;16.13;;;5.50;99.90;;;;;;4966074;28;20053;-77
2022/01/25 01:04:12;;;;;;;37.47;17.23;;;5.50;99.90;;;;;;4964808;28;20497;-77
2022/01/25 01:06:41;;;;;;;25.73;15.07;;;5.50;99.90;;;;;;4983263;28;20265;-78
2022/01/25 01:09:10;;;;;;;15.10;11.90;;;5.50;99.90;;;;;;4982622;28;20045;-77
2022/01/25 01:11:43;;;;;;;15.95;14.35;;;5.50;99.90;;;;;;4981680;28;20113;-78
2022/01/25 01:14:27;;;;;;;24.65;16.30;;;5.50;99.90;;;;;;4982487;28;20048;-77
2022/01/25 01:17:15;;;;;;;22.33;18.40;;;5.40;99.90;;;;;;4982557;28;20109;-77
2022/01/25 01:30:45;;;;;;;29.60;17.65;;;5.40;99.90;;;;;;4992904;28;20562;-77
2022/01/25 01:43:55;;;;;;;28.65;17.77;;;5.40;99.90;;;;;;4994651;28;20270;-77
2022/01/25 01:46:33;;;;;;;20.38;13.63;;;5.40;99.90;;;;;;5001486;28;20057;-77
2022/01/25 01:49:01;;;;;;;20.83;13.63;;;5.40;99.90;;;;;;4993693;28;20089;-78
2022/01/25 01:51:31;;;;;;;23.63;15.15;;;5.50;99.90;;;;;;4983094;28;20054;-78
2022/01/25 01:54:02;;;;;;;30.63;15.60;;;5.40;99.90;;;;;;4981787;28;20038;-77
2022/01/25 01:56:28;;;;;;;29.70;19.23;;;5.40;99.90;;;;;;4979883;28;20129;-77
2022/01/25 01:58:56;;;;;;;23.08;17.00;;;5.40;99.90;;;;;;4981264;28;20042;-77
2022/01/25 02:01:25;;;;;;;23.60;17.17;;;5.40;99.90;;;;;;4981997;28;20042;-77
2022/01/25 02:03:51;;;;;;;24.92;18.10;;;5.40;99.90;;;;;;4959377;23;20174;-78
2022/01/25 02:06:17;;;;;;;32.90;17.45;;;5.40;99.90;;;;;;4963377;28;20047;-78
2022/01/25 02:08:43;;;;;;;30.88;15.95;;;5.40;99.90;;;;;;4963534;28;20046;-78
2022/01/25 02:11:08;;;;;;;21.75;13.48;;;5.40;99.90;;;;;;4962263;28;20077;-78
2022/01/25 02:13:37;;;;;;;18.85;15.35;;;5.40;99.90;;;;;;4963218;28;20041;-78
2022/01/25 02:16:06;;;;;;;24.88;17.83;;;5.40;99.90;;;;;;4963113;28;20047;-77
2022/01/25 02:24:00;;;;;;;35.80;17.10;;;5.40;99.90;;;;;;4945896;28;20071;-78
2022/01/25 02:26:25;;;;;;;23.20;16.75;;;5.40;99.90;;;;;;4944679;28;20050;-78
2022/01/25 02:28:51;;;;;;;27.77;17.00;;;5.40;99.90;;;;;;4962972;28;20074;-78
2022/01/25 02:31:17;;;;;;;26.50;17.70;;;5.40;99.90;;;;;;4946091;28;20055;-78
2022/01/25 02:33:43;;;;;;;19.67;13.50;;;5.40;99.90;;;;;;4962318;28;20074;-78
2022/01/25 02:36:15;;;;;;;31.77;16.15;;;5.40;99.90;;;;;;4963269;28;20382;-78
2022/01/25 02:38:41;;;;;;;26.15;16.52;;;5.40;99.90;;;;;;4962635;28;20047;-78
2022/01/25 02:41:07;;;;;;;20.00;17.92;;;5.40;99.90;;;;;;4943880;28;20038;-77
2022/01/25 02:43:35;;;;;;;33.90;16.95;;;5.40;99.90;;;;;;4962980;28;20050;-77
2022/01/25 02:46:18;;;;;;;27.63;18.17;;;5.40;99.90;;;;;;4962358;28;20397;-77
2022/01/25 02:49:01;;;;;;;32.03;16.33;;;5.40;99.90;;;;;;4945146;28;20062;-78
2022/01/25 02:51:33;;;;;;;18.58;14.85;;;5.40;99.90;;;;;;4961566;28;20058;-77
2022/01/25 02:54:00;;;;;;;33.33;18.42;;;5.40;99.90;;;;;;4961246;28;20453;-77
2022/01/25 02:56:29;;;;;;;41.72;19.63;;;5.40;99.90;;;;;;4961385;28;20051;-78
2022/01/25 02:58:55;;;;;;;34.72;21.52;;;5.40;99.90;;;;;;4962437;28;20089;-78
2022/01/25 03:01:21;;;;;;;31.85;16.42;;;5.40;99.90;;;;;;4961948;28;20130;-77
2022/01/25 03:03:47;;;;;;;25.00;15.05;;;5.40;99.90;;;;;;4962068;28;20066;-77
2022/01/25 03:06:18;;;;;;;23.13;16.85;;;5.40;99.90;;;;;;4962737;28;20130;-78
2022/01/25 03:08:44;;;;;;;26.23;19.60;;;5.40;99.90;;;;;;4961172;28;20177;-78
2022/01/25 03:11:10;;;;;;;31.23;21.13;;;5.40;99.90;;;;;;4960894;28;20118;-77
2022/01/25 03:13:48;;;;;;;28.13;17.23;;;5.40;99.90;;;;;;4944540;28;20041;-78
2022/01/25 03:16:28;;;;;;;26.85;18.25;;;5.40;99.90;;;;;;4961774;28;20050;-78
2022/01/25 03:18:56;;;;;;;33.75;17.95;;;5.40;99.90;;;;;;4944573;28;20121;-78
2022/01/25 03:21:35;;;;;;;24.60;16.17;;;5.40;99.90;;;;;;4962068;28;20035;-78
2022/01/25 03:24:03;;;;;;;29.35;15.13;;;5.40;99.90;;;;;;4943151;28;20085;-78
2022/01/25 03:26:29;;;;;;;23.08;16.65;;;5.40;99.90;;;;;;4961169;28;20039;-78
2022/01/25 03:28:55;;;;;;;26.25;18.00;;;5.40;99.90;;;;;;4944918;28;20100;-78
2022/01/25 03:31:21;;;;;;;37.72;18.55;;;5.40;99.90;;;;;;4962048;28;20039;-78
2022/01/25 03:33:47;;;;;;;24.45;16.40;;;5.40;99.90;;;;;;4961686;28;20105;-78
2022/01/25 03:36:13;;;;;;;31.75;17.63;;;5.40;99.90;;;;;;4960959;28;20081;-78
2022/01/25 03:38:41;;;;;;;28.48;17.58;;;5.40;99.90;;;;;;4961736;28;20046;-78
2022/01/25 03:41:13;;;;;;;25.52;16.33;;;5.40;99.90;;;;;;4961394;28;20243;-78
2022/01/25 03:43:39;;;;;;;28.77;20.48;;;5.40;99.90;;;;;;4945038;28;20038;-77
2022/01/25 03:51:01;;;;;;;24.83;14.98;;;5.40;99.90;;;;;;4944541;28;20054;-77
2022/01/25 03:53:27;;;;;;;24.27;18.15;;;5.30;99.90;;;;;;4944518;28;20043;-77
2022/01/25 03:55:52;;;;;;;26.70;19.17;;;5.40;99.90;;;;;;4960841;28;20078;-78
2022/01/25 03:58:19;;;;;;;27.83;16.77;;;5.30;99.90;;;;;;4961758;28;20047;-78
2022/01/25 04:00:45;;;;;;;20.77;17.17;;;5.30;99.90;;;;;;4961351;28;20125;-78
2022/01/25 04:03:25;;;;;;;36.97;20.30;;;5.40;99.90;;;;;;4944428;28;20197;-78
2022/01/25 04:05:52;;;;;;;21.63;16.27;;;5.40;99.90;;;;;;4944668;28;20437;-78
2022/01/25 04:08:19;;;;;;;31.73;19.80;;;5.30;99.90;;;;;;4961781;28;20050;-78
2022/01/25 04:10:45;;;;;;;26.55;19.38;;;5.30;99.90;;;;;;4959593;28;20046;-78
2022/01/25 04:13:11;;;;;;;35.42;19.83;;;5.30;99.90;;;;;;4944258;28;20050;-78
2022/01/25 04:15:44;;;;;;;32.63;19.60;;;5.40;99.90;;;;;;4961745;28;20046;-78
2022/01/25 04:20:59;;;;;;;33.20;16.35;;;5.40;99.90;;;;;;4960791;28;20581;-78
2022/01/25 04:26:10;;;;;;;24.38;16.40;;;5.30;99.90;;;;;;4943549;28;20109;-78
2022/01/25 04:28:35;;;;;;;32.90;15.95;;;5.30;99.90;;;;;;4946074;28;20066;-78
2022/01/25 04:31:01;;;;;;;25.92;15.70;;;5.30;99.90;;;;;;4964958;28;20574;-78
2022/01/25 04:33:38;;;;;;;29.60;17.33;;;5.30;99.90;;;;;;4964402;28;20046;-78
2022/01/25 04:49:51;;;;;;;32.33;16.80;;;5.30;99.90;;;;;;4946708;28;20419;-78
2022/01/25 04:52:20;;;;;;;22.50;16.52;;;5.40;99.90;;;;;;4964544;28;20050;-78
2022/01/25 04:55:06;;;;;;;24.95;16.33;;;5.40;99.90;;;;;;4964161;28;20126;-78
2022/01/25 04:57:43;;;;;;;20.30;14.57;;;5.40;99.90;;;;;;4963966;28;20047;-77
2022/01/25 05:00:16;;;;;;;28.08;20.50;;;5.40;99.90;;;;;;4964627;28;20035;-78
2022/01/25 05:02:51;;;;;;;22.42;16.30;;;5.40;99.90;;;;;;4959916;28;20059;-78
2022/01/25 05:05:34;;;;;;;28.52;19.38;;;5.40;99.90;;;;;;4945391;29;20062;-77
2022/01/25 05:08:15;;;;;;;;;;;5.40;99.90;;;;;;4945024;29;20102;-77
2022/01/25 05:10:50;;;;;;;27.02;16.02;;;5.40;99.90;;;;;;4944304;29;20029;-77
2022/01/25 05:13:40;;;;;;;26.10;16.40;;;5.40;99.90;;;;;;4927834;29;20058;-77
2022/01/25 05:16:16;;;;;;;21.50;15.68;;;5.40;99.90;;;;;;4944588;29;20375;-78
2022/01/25 05:18:48;;;;;;;37.22;17.23;;;5.40;99.90;;;;;;4928131;29;20066;-78
2022/01/25 05:23:58;;;;;;;28.88;17.23;;;5.30;99.90;;;;;;4927421;29;20054;-77
2022/01/25 05:26:25;;;;;;;18.05;14.43;;;5.30;99.90;;;;;;4943966;29;20125;-78
2022/01/25 05:28:51;;;;;;;27.10;15.23;;;5.30;99.90;;;;;;4927756;29;20055;-78
2022/01/25 05:31:16;;;;;;;28.17;17.55;;;5.40;99.90;;;;;;4944568;29;20513;-78
2022/01/25 05:33:42;;;;;;;26.63;17.48;;;5.30;99.90;;;;;;4944644;28;20039;-77
2022/01/25 05:36:08;;;;;;;29.50;19.25;;;5.30;99.90;;;;;;4944645;29;20121;-78
2022/01/25 05:38:33;;;;;;;25.98;17.55;;;5.30;99.90;;;;;;4944891;29;20047;-78
2022/01/25 05:41:01;;;;;;;28.60;17.80;;;5.30;99.90;;;;;;4942743;28;20047;-78
2022/01/25 05:48:25;;;;;;;33.80;18.58;;;5.30;99.90;;;;;;4912218;29;20047;-78
2022/01/25 05:50:51;;;;;;;26.73;16.27;;;5.30;99.90;;;;;;4907873;29;20083;-78
2022/01/25 05:53:16;;;;;;;34.85;15.70;;;5.30;99.90;;;;;;4925165;29;20056;-77
2022/01/25 05:55:42;;;;;;;31.52;19.10;;;5.40;99.90;;;;;;4924571;29;20055;-77
2022/01/25 05:58:07;;;;;;;19.75;16.45;;;5.40;99.90;;;;;;4924586;29;20087;-78
2022/01/25 06:00:33;;;;;;;29.50;19.70;;;5.30;99.90;;;;;;4925648;29;20051;-78
2022/01/25 06:02:59;;;;;;;27.30;16.88;;;5.30;99.90;;;;;;4931468;29;20057;-78
2022/01/25 06:05:25;;;;;;;32.70;17.33;;;5.30;99.90;;;;;;4927271;29;20055;-78
2022/01/25 06:07:51;;;;;;;24.17;15.57;;;5.30;99.90;;;;;;4944124;29;20043;-78
2022/01/25 06:10:17;;;;;;;26.27;17.08;;;5.30;99.90;;;;;;4943378;28;20083;-78
2022/01/25 06:12:44;;;;;;;29.17;18.13;;;5.30;99.90;;;;;;4945980;28;20078;-78
2022/01/25 06:15:11;;;;;;;29.23;18.25;;;5.30;99.90;;;;;;4945086;28;20050;-77
2022/01/25 06:17:37;;;;;;;25.80;18.25;;;5.30;99.90;;;;;;4962094;28;20079;-78
2022/01/25 06:20:03;;;;;;;30.52;16.13;;;5.30;99.90;;;;;;4961042;28;20497;-78
2022/01/25 06:22:29;;;;;;;26.50;19.60;;;5.30;99.90;;;;;;4962417;28;20043;-78
2022/01/25 06:24:55;;;;;;;30.73;17.40;;;5.30;99.90;;;;;;4962944;28;20051;-78
2022/01/25 06:27:20;;;;;;;23.25;16.17;;;5.30;99.90;;;;;;4961072;28;20390;-78
2022/01/25 06:29:47;;;;;;;30.15;16.63;;;5.30;99.90;;;;;;4962550;28;20042;-78
2022/01/25 06:32:14;;;;;;;27.20;18.38;;;5.30;99.90;;;;;;4961412;28;20039;-78
2022/01/25 06:34:39;;;;;;;23.08;14.13;;;5.30;99.90;;;;;;4962846;28;20078;-78
2022/01/25 06:37:05;;;;;;;27.77;15.57;;;5.30;99.90;;;;;;4962501;28;20042;-78
2022/01/25 06:39:31;;;;;;;49.72;20.05;;;5.30;99.90;;;;;;4944710;28;20473;-78
2022/01/25 06:41:56;;;;;;;32.00;18.75;;;5.30;99.90;;;;;;4944493;28;20054;-79
2022/01/25 06:44:22;;;;;;;26.88;17.77;;;5.30;99.90;;;;;;4944974;28;20129;-79
2022/01/25 06:46:48;;;;;;;31.02;18.63;;;5.30;99.90;;;;;;4960126;28;20101;-78
2022/01/25 06:49:14;;;;;;;38.63;18.83;;;5.30;99.90;;;;;;4962722;28;20085;-79
2022/01/25 06:51:40;;;;;;;26.27;17.27;;;5.30;99.90;;;;;;4958447;28;20054;-79
2022/01/25 06:54:06;;;;;;;20.17;13.93;;;5.30;99.90;;;;;;4953078;28;20445;-78
2022/01/25 06:56:32;;;;;;;27.40;18.23;;;5.30;99.90;;;;;;4960755;28;20054;-79
2022/01/25 06:58:57;;;;;;;23.77;18.75;;;5.30;99.90;;;;;;4942554;28;20462;-79
2022/01/25 07:01:23;;;;;;;30.15;18.90;;;5.30;99.90;;;;;;4961321;28;20043;-78
2022/01/25 07:03:49;;;;;;;18.50;16.55;;;5.30;99.90;;;;;;4937082;28;20086;-79
2022/01/25 07:06:14;;;;;;;19.27;14.65;;;5.30;99.90;;;;;;4955634;28;20135;-81
2022/01/25 07:08:41;;;;;;;25.10;15.85;;;5.30;99.90;;;;;;4957214;28;20031;-80
2022/01/25 07:11:07;;;;;;;25.70;15.98;;;5.30;99.90;;;;;;4932219;28;20042;-79
2022/01/25 07:13:32;;;;;;;29.98;17.90;;;5.30;99.90;;;;;;4934816;28;20044;-80
2022/01/25 07:15:58;;;;;;;27.45;16.55;;;5.30;99.90;;;;;;4934406;28;20117;-80
2022/01/25 07:18:23;;;;;;;30.05;15.75;;;5.30;99.90;;;;;;4961136;28;20397;-79
2022/01/25 07:20:49;;;;;;;35.33;20.33;;;5.30;99.90;;;;;;4960380;28;20509;-80
2022/01/25 07:23:14;;;;;;;30.02;17.92;;;5.30;99.90;;;;;;4944190;28;20397;-80
2022/01/25 07:25:40;;;;;;;36.53;19.27;;;5.30;99.90;;;;;;4959897;28;20053;-79
2022/01/25 07:28:05;;;;;;;26.48;16.45;;;5.30;99.90;;;;;;4960323;28;20666;-81
2022/01/25 07:30:31;;;;;;;22.95;18.13;;;5.30;99.90;;;;;;4962418;28;20039;-80
2022/01/25 07:32:57;;;;;;;21.80;14.00;;;5.30;99.90;;;;;;4960989;28;20038;-80
2022/01/25 07:35:22;;;;;;;26.65;17.63;;;5.30;99.90;;;;;;4960442;28;20513;-81
2022/01/25 07:37:48;;;;;;;25.55;18.00;;;5.30;99.90;;;;;;4960021;28;20134;-80
2022/01/25 07:40:15;;;;;;;25.80;17.73;;;5.30;99.90;;;;;;4959316;28;20137;-80
2022/01/25 07:42:41;;;;;;;29.05;17.63;;;5.30;99.90;;;;;;4960580;28;20523;-80
2022/01/25 07:45:11;;;;;;;30.45;16.13;;;5.30;99.90;;;;;;4960122;28;20047;-80
2022/01/25 07:47:37;;;;;;;33.20;19.08;;;5.30;99.90;;;;;;4959660;28;20093;-80
2022/01/25 07:50:07;;;;;;;39.90;15.98;;;5.30;99.90;;;;;;4943004;28;20038;-80
2022/01/25 07:52:33;;;;;;;25.55;16.73;;;5.30;99.90;;;;;;4960051;28;20511;-80
2022/01/25 07:54:59;;;;;;;19.50;16.92;;;5.30;99.90;;;;;;4959776;28;20046;-80
2022/01/25 07:57:25;;;;;;;21.42;15.27;;;5.30;99.90;;;;;;4943031;28;20474;-80
2022/01/25 07:59:51;;;;;;;17.35;14.38;;;5.30;99.90;;;;;;4942610;28;20078;-80
2022/01/25 08:02:19;;;;;;;25.63;17.23;;;5.30;99.90;;;;;;4959883;28;20088;-80
2022/01/25 08:04:45;;;;;;;26.23;16.95;;;5.30;99.90;;;;;;4963632;28;20062;-80
2022/01/25 08:07:11;;;;;;;23.52;18.48;;;5.30;99.90;;;;;;4964252;28;20046;-80
2022/01/25 08:09:36;;;;;;;21.55;17.70;;;5.30;99.90;;;;;;4946448;28;20117;-80
2022/01/25 08:12:02;;;;;;;27.95;19.10;;;5.30;99.90;;;;;;4963364;28;20133;-80
2022/01/25 08:14:28;;;;;;;29.30;16.30;;;5.40;99.90;;;;;;4964017;28;20081;-80
2022/01/25 08:16:53;;;;;;;36.78;17.95;;;5.30;99.90;;;;;;4945627;28;20533;-80
2022/01/25 08:19:20;;;;;;;35.20;19.30;;;5.30;99.90;;;;;;4964471;28;20049;-80
2022/01/25 08:21:46;;;;;;;29.55;20.10;;;5.30;99.90;;;;;;4963227;28;20093;-80
2022/01/25 08:24:13;;;;;;;20.83;15.98;;;5.30;99.90;;;;;;4945858;28;20142;-81
2022/01/25 08:26:40;;;;;;;32.33;19.52;;;5.30;99.90;;;;;;4963441;28;20129;-80
2022/01/25 08:29:07;;;;;;;33.78;19.67;;;5.40;99.90;;;;;;4962991;28;20035;-80
2022/01/25 08:31:33;;;;;;;29.35;16.95;;;5.30;99.90;;;;;;4946184;28;20051;-80
2022/01/25 08:33:58;;;;;;;32.60;16.90;;;5.40;99.90;;;;;;4927417;29;20039;-80
2022/01/25 08:36:24;;;;;;;34.08;18.52;;;5.30;99.90;;;;;;4944064;29;20054;-80
2022/01/25 08:38:50;;;;;;;21.90;14.18;;;5.40;99.90;;;;;;4944246;29;20071;-80
2022/01/25 08:41:17;;;;;;;27.95;17.42;;;5.30;99.90;;;;;;4943180;29;20047;-80
2022/01/25 08:43:43;;;;;;;25.20;16.60;;;5.40;99.90;;;;;;4943686;29;20079;-80
2022/01/25 08:46:08;;;;;;;23.20;19.10;;;5.30;99.90;;;;;;4911272;29;20094;-80
2022/01/25 08:48:34;;;;;;;18.50;14.75;;;5.30;99.90;;;;;;4911281;29;20490;-80
2022/01/25 08:51:01;;;;;;;26.83;16.30;;;5.40;99.90;;;;;;4927455;29;20054;-80
2022/01/25 08:53:27;;;;;;;21.23;16.73;;;5.40;99.90;;;;;;4944391;28;20054;-79
2022/01/25 08:55:52;;;;;;;24.67;14.52;;;5.40;99.90;;;;;;4957605;28;20047;-80
2022/01/25 08:58:18;;;;;;;29.33;15.10;;;5.40;99.90;;;;;;4948145;28;20723;-80
2022/01/25 09:00:43;;;;;;;30.55;18.70;;;5.40;99.90;;;;;;4945091;28;20409;-80
2022/01/25 09:03:09;;;;;;;40.05;16.38;;;5.40;99.90;;;;;;4934085;28;20051;-80
2022/01/25 09:05:36;;;;;;;22.65;16.75;;;5.40;99.90;;;;;;4950496;28;20047;-80
2022/01/25 09:08:04;;;;;;;20.45;16.17;;;5.40;99.90;;;;;;4934300;28;20082;-81
2022/01/25 09:10:30;;;;;;;24.83;15.30;;;5.40;99.90;;;;;;4933977;28;20432;-81
2022/01/25 09:12:55;;;;;;;22.33;20.00;;;5.40;99.90;;;;;;4953002;28;20119;-81
2022/01/25 09:15:21;;;;;;;26.48;18.83;;;5.30;99.90;;;;;;4931957;28;20398;-80
2022/01/25 09:17:48;;;;;;;31.13;17.15;;;5.30;99.90;;;;;;4935047;28;20049;-80
2022/01/25 09:20:13;;;;;;;27.30;16.27;;;5.30;99.90;;;;;;4917850;28;20028;-81
2022/01/25 09:22:39;;;;;;;33.38;20.42;;;5.30;99.90;;;;;;4956896;28;20075;-81
2022/01/25 09:25:05;;;;;;;22.13;16.73;;;5.40;99.90;;;;;;4945697;28;20397;-81
2022/01/25 09:27:30;;;;;;;30.38;16.52;;;5.30;99.90;;;;;;4963009;28;20413;-81
2022/01/25 09:29:56;;;;;;;21.88;17.15;;;5.40;99.90;;;;;;4959231;28;20341;-80
2022/01/25 09:32:21;;;;;;;28.25;18.45;;;5.40;99.90;;;;;;4951845;28;20458;-82
2022/01/25 09:34:47;;;;;;;27.00;16.55;;;5.40;99.90;;;;;;4933211;28;20050;-81
2022/01/25 09:37:13;;;;;;;32.25;19.55;;;5.40;99.90;;;;;;4953415;28;20038;-82
2022/01/25 09:39:40;;;;;;;19.63;14.82;;;5.40;99.90;;;;;;4951713;28;20043;-80
2022/01/25 09:42:09;;;;;;;32.67;17.95;;;5.40;99.90;;;;;;4951267;28;20042;-80
2022/01/25 09:44:39;;;;;;;21.50;16.98;;;5.30;99.90;;;;;;4960820;28;20047;-81
2022/01/25 09:47:06;;;;;;;25.80;17.80;;;5.40;99.90;;;;;;4963121;28;20093;-80
2022/01/25 09:49:33;;;;;;;29.63;18.73;;;5.30;99.90;;;;;;4962976;28;20046;-80
2022/01/25 09:52:05;;;;;;;27.70;16.60;;;5.30;99.90;;;;;;4945117;28;20047;-80
2022/01/25 09:54:32;;;;;;;34.55;19.08;;;5.40;99.90;;;;;;4962987;28;20039;-82
2022/01/25 09:56:58;;;;;;;32.53;18.17;;;5.30;99.90;;;;;;4963026;28;20043;-79
2022/01/25 09:59:26;;;;;;;34.55;18.95;;;5.40;99.90;;;;;;4946150;28;20055;-79
2022/01/25 10:01:52;;;;;;;29.42;17.60;;;5.40;99.90;;;;;;4962833;28;20046;-79
2022/01/25 10:04:28;;;;;;;32.40;18.85;;;5.40;99.90;;;;;;4954438;28;20059;-79
2022/01/25 10:06:53;;;;;;;19.35;17.27;;;5.40;99.90;;;;;;4943375;28;20122;-81
2022/01/25 10:09:20;;;;;;;28.52;19.48;;;5.40;99.90;;;;;;4963060;28;20138;-80
2022/01/25 10:11:47;;;;;;;21.05;17.25;;;5.40;99.90;;;;;;4960974;28;20043;-80
2022/01/25 10:14:13;;;;;;;38.03;17.17;;;5.40;99.90;;;;;;4957677;28;20085;-80
2022/01/25 10:16:42;;;;;;;23.52;16.98;;;5.40;99.90;;;;;;4959076;28;20049;-81
2022/01/25 10:19:12;;;;;;;33.75;16.50;;;5.30;99.90;;;;;;4929468;28;20086;-81
2022/01/25 10:21:50;;;;;;;33.08;19.05;;;5.30;99.90;;;;;;4962006;28;20090;-83
2022/01/25 10:24:21;;;;;;;24.35;15.07;;;5.30;99.90;;;;;;4961933;28;20049;-85
2022/01/25 10:26:53;;;;;;;25.77;18.63;;;5.30;99.90;;;;;;4927358;29;20134;-80
2022/01/25 10:29:20;;;;;;;;;;;5.30;99.90;;;;;;4944282;28;20072;-78
2022/01/25 10:31:49;;;;;;;32.95;19.10;;;5.40;99.90;;;;;;4943622;29;19923;-78
2022/01/25 10:34:20;;;;;;;27.50;16.33;;;5.40;99.90;;;;;;4943657;28;20138;-78
2022/01/25 10:36:48;;;;;;;27.08;18.58;;;5.30;99.90;;;;;;4942859;28;20098;-78
2022/01/25 10:39:39;;;;;;;29.70;18.00;;;5.30;99.90;;;;;;4944898;28;20489;-78
2022/01/25 10:42:11;;;;;;;29.75;20.98;;;5.30;99.90;;;;;;4960736;28;20151;-78
2022/01/25 10:44:46;;;;;;;33.57;17.03;;;5.40;99.90;;;;;;4945580;28;20046;-78
2022/01/25 10:47:12;;;;;;;29.88;17.15;;;5.30;99.90;;;;;;4961108;28;20389;-78
2022/01/25 10:49:45;;;;;;;25.35;17.77;;;5.30;99.90;;;;;;4959633;28;20585;-78
2022/01/25 10:52:11;;;;;;;18.90;16.45;;;5.30;99.90;;;;;;4941397;28;20054;-79
2022/01/25 10:54:41;;;;;;;42.67;15.93;;;5.30;99.90;;;;;;4947962;28;20117;-79
2022/01/25 10:57:20;;;;;;;37.92;18.90;;;5.40;99.90;;;;;;4962109;28;20146;-79
2022/01/25 11:00:01;;;;;;;25.58;15.90;;;5.40;99.90;;;;;;4943531;28;20146;-79
2022/01/25 11:02:27;;;;;;;27.65;19.38;;;5.40;99.90;;;;;;4944417;28;20051;-79
2022/01/25 11:05:08;;;;;;;29.92;16.95;;;5.30;99.90;;;;;;4960779;28;20035;-80
2022/01/25 11:07:40;;;;;;;36.90;19.92;;;5.30;99.90;;;;;;4962276;28;20581;-77
2022/01/25 11:10:08;;;;;;;28.98;19.35;;;5.40;99.90;;;;;;4961107;28;20051;-78
2022/01/25 11:12:38;;;;;;;32.38;14.75;;;5.30;99.90;;;;;;4961810;28;20218;-78
2022/01/25 11:15:05;;;;;;;30.92;19.30;;;5.30;99.90;;;;;;4943583;28;20121;-78
2022/01/25 11:17:32;;;;;;;22.88;17.17;;;5.40;99.90;;;;;;4943171;28;20198;-78
2022/01/25 11:20:00;;;;;;;27.73;17.33;;;5.30;99.90;;;;;;4961705;28;20117;-78
2022/01/25 11:22:27;;;;;;;21.30;16.30;;;5.30;99.90;;;;;;4962130;28;20182;-78
2022/01/25 11:25:02;;;;;;;28.42;16.10;;;5.30;99.90;;;;;;4941810;28;20047;-78
2022/01/25 11:27:30;;;;;;;25.67;20.52;;;5.30;99.90;;;;;;4961878;28;20328;-79
2022/01/25 11:30:05;;;;;;;24.08;15.43;;;5.30;99.90;;;;;;4952011;28;20039;-80
2022/01/25 11:32:38;;;;;;;17.00;15.25;;;5.30;99.90;;;;;;4942926;28;20078;-80
2022/01/25 11:35:08;;;;;;;27.70;16.15;;;5.30;99.90;;;;;;4941498;28;20084;-79
2022/01/25 11:37:39;;;;;;;37.45;21.33;;;5.30;99.90;;;;;;4939974;28;20101;-79
2022/01/25 11:40:31;;;;;;;31.40;20.35;;;5.30;99.90;;;;;;4958813;28;20038;-79
2022/01/25 11:43:00;;;;;;;27.52;19.10;;;5.30;99.90;;;;;;4957452;28;20577;-79
2022/01/25 11:45:32;;;;;;;23.17;15.82;;;5.30;99.90;;;;;;4942091;28;20053;-79
2022/01/25 11:47:58;;;;;;;37.45;20.23;;;5.30;99.90;;;;;;4950727;28;20101;-80
2022/01/25 11:50:30;;;;;;;33.20;20.40;;;5.30;99.90;;;;;;4950579;28;20032;-79
2022/01/25 11:53:06;;;;;;;29.33;19.13;;;5.30;99.90;;;;;;4940983;28;20053;-77
2022/01/25 11:55:34;;;;;;;23.27;17.85;;;5.30;99.90;;;;;;4956820;28;20067;-79
2022/01/25 11:57:59;;;;;;;36.80;18.73;;;5.30;99.90;;;;;;4956450;28;20034;-78
2022/01/25 12:00:49;;;;;;;23.73;19.33;;;5.30;99.90;;;;;;4949875;28;20094;-78
2022/01/25 12:03:31;;;;;;;25.80;16.95;;;5.30;99.90;;;;;;4942095;28;20055;-79
2022/01/25 12:06:07;;;;;;;39.28;18.30;;;5.30;99.90;;;;;;4940201;28;20055;-79
2022/01/25 12:08:52;;;;;;;31.92;20.55;;;5.30;99.90;;;;;;4927009;28;20329;-79
2022/01/25 12:11:33;;;;;;;40.55;20.92;;;5.30;99.90;;;;;;4958058;28;20086;-79
2022/01/25 12:14:21;;;;;;;37.50;17.52;;;5.30;99.90;;;;;;4935034;28;20051;-78
2022/01/25 12:16:50;;;;;;;28.95;19.38;;;5.40;99.90;;;;;;4929847;29;20051;-79
2022/01/25 12:19:19;;;;;;;35.22;15.48;;;5.40;99.90;;;;;;4940585;28;20055;-77
2022/01/25 12:21:45;;;;;;;27.25;17.50;;;5.40;99.90;;;;;;4943592;28;20051;-78
2022/01/25 12:24:37;;;;;;;43.63;21.08;;;5.40;99.90;;;;;;4952290;28;20417;-78
2022/01/25 12:29:58;;;;;;;25.63;17.08;;;5.30;99.90;;;;;;4939840;28;20050;-79
2022/01/25 12:32:35;;;;;;;30.25;18.75;;;5.40;99.90;;;;;;4943867;28;20054;-78
2022/01/25 12:35:03;;;;;;;27.00;17.10;;;5.40;99.90;;;;;;4953333;28;20047;-79
2022/01/25 12:37:44;;;;;;;21.70;15.57;;;5.40;99.90;;;;;;4957529;28;20477;-78
2022/01/25 12:40:25;;;;;;;32.08;19.02;;;5.40;99.90;;;;;;4942621;28;20057;-79
2022/01/25 12:43:04;;;;;;;29.98;17.13;;;5.40;99.90;;;;;;4958153;28;20050;-78
2022/01/25 12:45:43;;;;;;;34.42;17.83;;;5.40;99.90;;;;;;4956963;28;20055;-79
2022/01/25 12:48:11;;;;;;;29.83;18.27;;;5.40;99.90;;;;;;4941317;28;20051;-78
2022/01/25 12:50:40;;;;;;;35.05;18.17;;;5.40;99.90;;;;;;4960954;28;20074;-79
2022/01/25 12:53:08;;;;;;;22.42;17.70;;;5.40;99.90;;;;;;4945097;28;20090;-79
2022/01/25 12:55:38;;;;;;;23.02;16.92;;;5.40;99.90;;;;;;4961353;28;20065;-80
2022/01/25 12:58:05;;;;;;;29.30;19.10;;;5.40;99.90;;;;;;4961196;28;20074;-78
2022/01/25 13:00:36;;;;;;;25.98;17.13;;;5.40;99.90;;;;;;4959873;28;20853;-79
2022/01/25 13:03:35;;;;;;;35.90;22.42;;;5.40;99.90;;;;;;4961946;28;20054;-79
2022/01/25 13:06:05;;;;;;;20.20;17.80;;;5.40;99.90;;;;;;4934914;28;20066;-79
2022/01/25 13:08:46;;;;;;;37.53;19.33;;;5.40;99.90;;;;;;4942586;28;20066;-79
2022/01/25 13:11:27;;;;;;;38.63;19.63;;;5.40;99.90;;;;;;4955415;28;20048;-80
2022/01/25 13:14:18;;;;;;;31.88;16.10;;;5.40;99.90;;;;;;4961849;28;20039;-78
2022/01/25 13:16:51;;;;;;;31.08;18.63;;;5.40;99.90;;;;;;4947108;28;20054;-79
2022/01/25 13:19:26;;;;;;;31.58;18.67;;;5.40;99.90;;;;;;4957960;28;20501;-80
2022/01/25 13:22:00;;;;;;;35.08;19.83;;;5.40;99.90;;;;;;4953967;28;20386;-79
2022/01/25 13:24:31;;;;;;;27.88;16.55;;;5.40;99.90;;;;;;4941804;28;20125;-79
2022/01/25 13:27:11;;;;;;;24.67;16.00;;;5.40;99.90;;;;;;4945289;28;20129;-79
2022/01/25 13:32:39;;;;;;;21.25;18.48;;;5.40;99.90;;;;;;4937846;28;20093;-78
2022/01/25 13:35:27;;;;;;;24.65;17.30;;;5.30;99.90;;;;;;4962684;28;20039;-78
2022/01/25 13:38:21;;;;;;;30.80;18.38;;;5.40;99.90;;;;;;4962658;28;20047;-78
2022/01/25 13:41:04;;;;;;;25.92;17.95;;;5.30;99.90;;;;;;4945149;28;20141;-78
2022/01/25 13:46:18;;;;;;;36.25;20.15;;;5.30;99.90;;;;;;4946554;28;20557;-78
2022/01/25 13:48:45;;;;;;;29.42;17.70;;;5.30;99.90;;;;;;4946190;28;20451;-77
2022/01/25 13:51:13;;;;;;;37.67;20.50;;;5.40;99.90;;;;;;4945936;28;20047;-77
2022/01/25 13:53:39;;;;;;;29.70;15.63;;;5.30;99.90;;;;;;4964103;28;20166;-77
2022/01/25 13:56:16;;;;;;;26.42;17.10;;;5.30;99.90;;;;;;4962518;28;20054;-77
2022/01/25 13:58:47;;;;;;;25.13;19.50;;;5.30;99.90;;;;;;4946441;28;20117;-77
2022/01/25 14:01:14;;;;;;;30.27;19.25;;;5.30;99.90;;;;;;4963336;28;20047;-78
2022/01/25 14:03:43;;;;;;;27.17;19.08;;;5.30;99.90;;;;;;4945220;28;20162;-78
2022/01/25 14:06:27;;;;;;;39.85;20.95;;;5.40;99.90;;;;;;4962989;28;20051;-78
2022/01/25 14:09:05;;;;;;;32.55;18.77;;;5.40;99.90;;;;;;4943205;28;20046;-78
2022/01/25 14:11:51;;;;;;;25.52;17.58;;;5.40;99.90;;;;;;4963007;28;20055;-78
2022/01/25 14:25:43;;;;;;;34.05;21.30;;;5.30;99.90;;;;;;4942898;29;20058;-83
2022/01/25 14:28:23;;;;;;;26.17;17.73;;;5.30;99.90;;;;;;4954981;28;20046;-83
2022/01/25 14:30:51;;;;;;;36.50;21.00;;;5.30;99.90;;;;;;4951634;28;20042;-84
2022/01/25 14:33:34;;;;;;;29.35;22.00;;;5.30;99.90;;;;;;4934074;28;20064;-84
2022/01/25 14:36:04;;;;;;;24.83;16.35;;;5.30;99.90;;;;;;4956057;28;20043;-84
2022/01/25 14:38:32;;;;;;;27.52;15.48;;;5.30;99.90;;;;;;4938558;28;20090;-78